EmailTwitter


Surface observations / France / LFBO (07630)

Regions: Quebec | Canada | USA | Europe | France | UK | Elsewhere
Station
Display
Info & Location for LFBO (07630) | Help decoding METAR

Weather Conditions observed on 2020/04/05 at 13:00 UTC at TOULOUSE/BLAGNAC, FR (LFBO)

Temperature: 20.0 Celsius.

Dewpoint: 4.0 Celsius.

Relative Humidity: 35%

Winds: Southeast at 41 km/h or 22 knots.

Mean Sea level Pressure: 101.50 kilopascals.

Coded METAR:

LFBO 051300Z AUTO 13022KT CAVOK 20/04 Q1015 BECMG 14017G28KT=